Time;durP1;ratioP1;P1;durP2;ratioP2;P2;SDS_P1;SDS_P2;PMS_P1;PMS_P2;Temp;Humidity;BMP_temperature;BMP_pressure;BME280_temperature;BME280_humidity;BME280_pressure;Samples;Min_cycle;Max_cycle;Signal;HPM_P1;HPM_P2
2023/03/05 20:22:55;;;;;;;1.20;1.10;;;15.60;52.70;;;;;;6209530;23;20036;-70
2023/03/05 20:25:23;;;;;;;2.22;1.15;;;15.60;52.80;;;;;;6216118;23;20360;-70
2023/03/05 20:27:49;;;;;;;2.20;1.55;;;15.60;52.80;;;;;;6225772;23;20016;-70
2023/03/05 20:30:16;;;;;;;1.88;1.10;;;15.60;52.80;;;;;;6225728;23;19993;-70
2023/03/05 20:32:42;;;;;;;1.25;1.15;;;15.60;52.70;;;;;;6225561;23;20005;-70
2023/03/05 20:35:13;;;;;;;2.25;1.33;;;15.60;52.70;;;;;;6225672;23;20000;-70
2023/03/05 20:37:48;;;;;;;1.40;1.17;;;15.60;52.70;;;;;;6225794;23;20102;-70
2023/03/05 20:40:14;;;;;;;1.55;1.08;;;15.60;52.60;;;;;;6215933;23;20019;-70
2023/03/05 20:42:40;;;;;;;2.47;1.60;;;15.60;52.70;;;;;;6215735;23;20005;-70
2023/03/05 20:45:07;;;;;;;1.90;0.95;;;15.60;52.70;;;;;;6215821;23;20334;-70
2023/03/05 20:47:44;;;;;;;2.50;1.10;;;15.60;52.60;;;;;;6225425;23;20083;-70
2023/03/05 20:50:13;;;;;;;1.15;1.05;;;15.60;52.60;;;;;;6213801;23;20003;-70
2023/03/05 20:52:39;;;;;;;1.33;1.02;;;15.60;52.60;;;;;;6215798;23;20009;-70
2023/03/05 20:55:06;;;;;;;1.15;0.75;;;15.50;52.50;;;;;;6225473;23;19992;-70
2023/03/05 20:57:33;;;;;;;0.77;0.70;;;15.50;52.60;;;;;;6225691;23;20027;-73
2023/03/05 20:59:59;;;;;;;1.30;1.17;;;15.50;52.70;;;;;;6225457;23;19999;-73
2023/03/05 21:02:25;;;;;;;1.13;0.90;;;15.50;52.60;;;;;;6215732;23;20055;-73
2023/03/05 21:04:51;;;;;;;1.10;0.98;;;15.50;52.70;;;;;;6225460;23;20003;-73
2023/03/05 21:07:17;;;;;;;1.20;0.85;;;15.50;52.70;;;;;;6225396;23;20004;-73
2023/03/05 21:09:43;;;;;;;1.10;0.70;;;15.50;52.70;;;;;;6225539;23;20003;-73
2023/03/05 21:12:09;;;;;;;1.23;1.10;;;15.50;52.60;;;;;;6225231;23;20008;-73
2023/03/05 21:14:36;;;;;;;1.65;1.10;;;15.50;53.30;;;;;;6225451;23;20375;-73
2023/03/05 21:17:08;;;;;;;1.50;1.10;;;15.50;52.60;;;;;;6215622;23;20001;-74
2023/03/05 21:19:36;;;;;;;1.55;1.20;;;15.50;52.60;;;;;;6225371;23;20020;-73
2023/03/05 21:22:02;;;;;;;1.77;1.30;;;15.50;52.60;;;;;;6224980;23;20023;-73
2023/03/05 21:24:32;;;;;;;1.90;1.50;;;15.50;52.60;;;;;;6225177;23;20068;-72
2023/03/05 21:26:58;;;;;;;1.77;1.17;;;15.50;52.60;;;;;;6225194;23;20019;-72
2023/03/05 21:29:23;;;;;;;1.33;0.98;;;15.50;52.50;;;;;;6225143;23;20424;-72
2023/03/05 21:31:49;;;;;;;1.27;1.13;;;15.40;52.50;;;;;;6225098;23;20415;-72
2023/03/05 21:34:14;;;;;;;1.38;1.02;;;15.40;52.60;;;;;;6225007;23;19999;-72
2023/03/05 21:36:40;;;;;;;2.17;1.38;;;15.40;52.50;;;;;;6225114;23;20012;-72
2023/03/05 21:39:06;;;;;;;2.13;1.10;;;15.40;52.60;;;;;;6214862;23;19996;-72
2023/03/05 21:41:32;;;;;;;2.00;1.00;;;15.40;52.60;;;;;;6214802;23;19997;-72
2023/03/05 21:44:02;;;;;;;1.65;1.08;;;15.40;52.50;;;;;;6214885;23;19996;-72
2023/03/05 21:46:29;;;;;;;1.00;0.85;;;15.40;52.60;;;;;;6215311;23;20447;-72
2023/03/05 21:48:55;;;;;;;1.45;1.15;;;15.40;52.50;;;;;;6215107;23;20015;-72
2023/03/05 21:51:27;;;;;;;2.50;1.10;;;15.40;52.50;;;;;;6215086;23;20023;-72
2023/03/05 21:53:53;;;;;;;1.48;0.90;;;15.40;52.50;;;;;;6215006;23;20005;-72
2023/03/05 21:56:22;;;;;;;2.15;0.98;;;15.40;52.50;;;;;;6214564;23;20427;-72
2023/03/05 21:58:52;;;;;;;1.35;1.08;;;15.40;52.50;;;;;;6215196;23;19996;-72
2023/03/05 22:01:19;;;;;;;1.80;0.88;;;15.40;52.50;;;;;;6215063;23;19997;-72
2023/03/05 22:03:46;;;;;;;0.80;0.77;;;15.30;52.60;;;;;;6215124;23;20320;-72
2023/03/05 22:06:14;;;;;;;2.03;1.00;;;15.30;52.50;;;;;;6214940;23;20035;-72
2023/03/05 22:08:40;;;;;;;1.20;1.00;;;15.30;52.40;;;;;;6215028;23;19997;-72
2023/03/05 22:11:11;;;;;;;1.17;1.08;;;15.40;52.40;;;;;;6214979;23;20000;-72
2023/03/05 22:13:37;;;;;;;1.48;0.90;;;15.30;52.40;;;;;;6214882;23;20001;-72
2023/03/05 22:16:04;;;;;;;0.80;0.77;;;15.30;52.70;;;;;;6214594;23;20419;-72
2023/03/05 22:18:31;;;;;;;1.00;0.75;;;15.00;52.10;;;;;;6215078;23;20441;-72
2023/03/05 22:20:59;;;;;;;0.77;0.60;;;15.30;52.30;;;;;;6214591;23;19997;-71
2023/03/05 22:23:28;;;;;;;1.48;0.80;;;15.30;52.30;;;;;;6214993;23;20016;-72
2023/03/05 22:25:59;;;;;;;1.38;0.90;;;15.30;52.30;;;;;;6214991;23;20000;-72
2023/03/05 22:28:26;;;;;;;1.17;0.70;;;15.30;52.20;;;;;;6214891;23;20080;-72
2023/03/05 22:30:52;;;;;;;1.15;0.65;;;15.30;52.10;;;;;;6214591;23;20068;-72
2023/03/05 22:33:18;;;;;;;1.45;0.75;;;15.30;52.10;;;;;;6214740;23;20008;-71
2023/03/05 22:35:44;;;;;;;1.10;0.95;;;15.30;52.10;;;;;;6214504;23;19993;-72
2023/03/05 22:38:11;;;;;;;1.30;0.70;;;15.30;52.00;;;;;;6214860;23;20355;-72
2023/03/05 22:40:45;;;;;;;1.17;0.90;;;15.30;52.10;;;;;;6213607;23;19999;-72
2023/03/05 22:43:12;;;;;;;1.60;0.80;;;15.30;52.10;;;;;;6223704;23;20039;-72
2023/03/05 22:45:39;;;;;;;1.35;0.90;;;15.30;52.10;;;;;;6212714;23;20043;-72
2023/03/05 22:48:06;;;;;;;1.15;0.60;;;15.30;52.10;;;;;;6224583;23;20001;-70
2023/03/05 22:50:31;;;;;;;1.02;0.80;;;15.30;52.10;;;;;;6224284;23;20005;-70
2023/03/05 22:52:57;;;;;;;0.60;0.60;;;15.20;52.00;;;;;;6224260;23;20382;-70
2023/03/05 22:55:23;;;;;;;0.70;0.60;;;15.20;52.00;;;;;;6224330;23;19996;-70
2023/03/05 22:57:48;;;;;;;1.05;0.73;;;15.20;52.00;;;;;;6224396;23;20071;-70
2023/03/05 23:00:22;;;;;;;0.85;0.60;;;15.20;52.00;;;;;;6224421;23;20076;-70
2023/03/05 23:02:48;;;;;;;1.30;0.80;;;15.20;52.00;;;;;;6224469;23;20427;-70
2023/03/05 23:05:14;;;;;;;1.10;0.77;;;15.20;52.00;;;;;;6215177;23;20443;-70
2023/03/05 23:07:41;;;;;;;0.63;0.50;;;15.20;52.00;;;;;;6226857;23;19992;-70
2023/03/05 23:10:19;;;;;;;0.93;0.60;;;15.20;52.00;;;;;;6226438;23;20011;-70
2023/03/05 23:12:48;;;;;;;0.70;0.70;;;15.20;52.00;;;;;;6226464;23;20066;-70
2023/03/05 23:15:17;;;;;;;1.13;0.60;;;15.10;51.90;;;;;;6226453;23;20079;-70
2023/03/05 23:17:43;;;;;;;1.05;0.65;;;15.20;52.00;;;;;;6226298;23;19999;-70
2023/03/05 23:20:10;;;;;;;0.80;0.50;;;15.10;52.60;;;;;;6226369;23;20000;-70
2023/03/05 23:22:38;;;;;;;0.93;0.80;;;15.10;51.80;;;;;;6225944;23;20076;-70
2023/03/05 23:25:04;;;;;;;0.63;0.47;;;15.10;51.90;;;;;;6226434;23;20003;-72
2023/03/05 23:27:29;;;;;;;0.50;0.50;;;15.10;51.80;;;;;;6226183;23;20424;-72
2023/03/05 23:32:38;;;;;;;1.45;0.70;;;15.10;51.80;;;;;;6226525;23;20045;-72
2023/03/05 23:35:04;;;;;;;0.75;0.45;;;15.10;51.70;;;;;;6226131;23;20078;-72
2023/03/05 23:37:29;;;;;;;1.35;0.68;;;15.10;51.80;;;;;;6226074;23;19996;-73
2023/03/05 23:39:55;;;;;;;1.15;0.45;;;15.10;51.80;;;;;;6226191;23;19997;-72
2023/03/05 23:42:21;;;;;;;1.13;0.70;;;15.10;51.80;;;;;;6226226;23;20431;-72
2023/03/05 23:44:46;;;;;;;1.55;0.60;;;15.10;51.80;;;;;;6226151;23;19997;-70
2023/03/05 23:47:12;;;;;;;1.70;0.70;;;15.00;51.70;;;;;;6226156;23;20030;-70
2023/03/05 23:49:37;;;;;;;1.75;0.30;;;15.00;51.70;;;;;;6226046;23;20031;-70
2023/03/05 23:52:03;;;;;;;1.15;0.50;;;15.00;51.80;;;;;;6216176;23;20008;-70
2023/03/05 23:54:29;;;;;;;1.05;0.65;;;15.00;51.70;;;;;;6226037;23;20340;-70
2023/03/05 23:56:54;;;;;;;0.82;0.50;;;15.00;51.80;;;;;;6225959;23;20007;-70
2023/03/05 23:59:20;;;;;;;0.60;0.50;;;14.90;51.70;;;;;;6226096;23;20031;-70
